Time;durP1;ratioP1;P1;durP2;ratioP2;P2;SDS_P1;SDS_P2;PMS_P1;PMS_P2;Temp;Humidity;BMP_temperature;BMP_pressure;BME280_temperature;BME280_humidity;BME280_pressure;Samples;Min_cycle;Max_cycle;Signal;HPM_P1;HPM_P2
2021/07/28 00:00:47;;;;;;;14.80;10.80;;;;;;;;;;5035826;28;20898;-81
2021/07/28 00:03:13;;;;;;;20.87;11.27;;;;;;;;;;5035556;28;20475;-80
2021/07/28 00:05:39;;;;;;;14.23;10.10;;;;;;;;;;5035438;28;20543;-80
2021/07/28 00:08:05;;;;;;;14.00;11.10;;;;;;;;;;5035523;28;20388;-82
2021/07/28 00:10:31;;;;;;;16.07;10.50;;;;;;;;;;5035598;28;20434;-81
2021/07/28 00:12:57;;;;;;;14.10;11.27;;;;;;;;;;5035336;28;20815;-80
2021/07/28 00:15:23;;;;;;;16.47;10.70;;;;;;;;;;5050184;28;20469;-80
2021/07/28 00:17:59;;;;;;;17.73;10.70;;;;;;;;;;5035462;28;20474;-82
2021/07/28 00:23:19;;;;;;;13.43;11.20;;;;;;;;;;5034242;28;20476;-81
2021/07/28 00:25:49;;;;;;;18.43;10.63;;;;;;;;;;5050664;28;20890;-82
2021/07/28 00:28:15;;;;;;;20.10;9.40;;;;;;;;;;5051028;28;20417;-81
2021/07/28 00:30:42;;;;;;;17.23;10.80;;;;;;;;;;5034106;28;20400;-82
2021/07/28 00:33:08;;;;;;;16.17;10.40;;;;;;;;;;5034797;28;20390;-80
2021/07/28 00:35:34;;;;;;;17.37;11.00;;;;;;;;;;5035314;28;20407;-81
2021/07/28 00:38:04;;;;;;;16.87;10.47;;;;;;;;;;5017367;28;20424;-82
2021/07/28 00:40:30;;;;;;;14.40;10.27;;;;;;;;;;5034966;28;20942;-82
2021/07/28 00:43:15;;;;;;;21.73;10.93;;;;;;;;;;5050023;28;20439;-81
2021/07/28 00:45:42;;;;;;;12.60;9.80;;;;;;;;;;5035259;28;20794;-80
2021/07/28 00:48:09;;;;;;;16.83;10.93;;;;;;;;;;5034958;28;20843;-80
2021/07/28 00:50:36;;;;;;;15.47;11.43;;;;;;;;;;5034723;28;20420;-82
2021/07/28 00:53:02;;;;;;;15.73;11.60;;;;;;;;;;5034474;28;20466;-82
2021/07/28 00:55:32;;;;;;;13.47;10.70;;;;;;;;;;5033573;28;20490;-80
2021/07/28 00:58:01;;;;;;;14.93;10.17;;;;;;;;;;5034737;28;20387;-82
2021/07/28 01:00:27;;;;;;;15.87;10.77;;;;;;;;;;5034765;28;20430;-81
2021/07/28 01:02:53;;;;;;;13.13;11.20;;;;;;;;;;5034307;28;20460;-80
2021/07/28 01:05:20;;;;;;;19.60;11.20;;;;;;;;;;5034324;28;20503;-81
2021/07/28 01:07:46;;;;;;;23.43;10.73;;;;;;;;;;5034630;28;20413;-81
2021/07/28 01:10:12;;;;;;;12.10;10.03;;;;;;;;;;5034452;28;20482;-82
2021/07/28 01:12:43;;;;;;;16.73;10.73;;;;;;;;;;5049657;28;20438;-82
2021/07/28 01:15:10;;;;;;;18.30;10.93;;;;;;;;;;5034318;28;20953;-81
2021/07/28 01:17:36;;;;;;;18.17;10.97;;;;;;;;;;5034482;28;20944;-81
2021/07/28 01:20:06;;;;;;;18.23;11.20;;;;;;;;;;5034204;28;20413;-80
2021/07/28 01:22:33;;;;;;;13.20;10.03;;;;;;;;;;5033963;28;20458;-80
2021/07/28 01:24:59;;;;;;;16.10;10.83;;;;;;;;;;5033967;28;20546;-81
2021/07/28 01:27:25;;;;;;;14.40;10.20;;;;;;;;;;5015646;28;20471;-81
2021/07/28 01:29:51;;;;;;;13.17;10.67;;;;;;;;;;5049538;28;20413;-81
2021/07/28 01:32:17;;;;;;;14.50;11.53;;;;;;;;;;5034051;28;20425;-81
2021/07/28 01:34:44;;;;;;;16.87;11.07;;;;;;;;;;5033835;28;20447;-81
2021/07/28 01:37:11;;;;;;;15.93;10.50;;;;;;;;;;5033972;28;20443;-81
2021/07/28 01:39:37;;;;;;;14.73;11.07;;;;;;;;;;5034060;28;20392;-80
2021/07/28 01:42:03;;;;;;;14.70;11.03;;;;;;;;;;5032892;28;20823;-81
2021/07/28 01:44:32;;;;;;;16.63;11.23;;;;;;;;;;5033342;28;20407;-81
2021/07/28 01:46:58;;;;;;;13.77;10.40;;;;;;;;;;5049267;28;20413;-81
2021/07/28 01:49:24;;;;;;;15.13;11.53;;;;;;;;;;5033774;28;20402;-81
2021/07/28 01:51:50;;;;;;;12.23;10.27;;;;;;;;;;5033877;28;20424;-81
2021/07/28 01:54:16;;;;;;;15.93;11.20;;;;;;;;;;5032283;28;20500;-81
2021/07/28 01:56:42;;;;;;;11.27;10.03;;;;;;;;;;5033422;28;20844;-80
2021/07/28 01:59:12;;;;;;;14.60;11.60;;;;;;;;;;5048893;28;20496;-81
2021/07/28 02:01:38;;;;;;;15.00;10.53;;;;;;;;;;5033565;28;20404;-80
2021/07/28 02:04:05;;;;;;;20.00;13.33;;;;;;;;;;5033085;28;20405;-80
2021/07/28 02:06:30;;;;;;;13.27;11.93;;;;;;;;;;5033532;28;20942;-80
2021/07/28 02:08:56;;;;;;;13.03;11.57;;;;;;;;;;5033293;28;20425;-80
2021/07/28 02:11:22;;;;;;;16.43;11.07;;;;;;;;;;5033426;28;20471;-81
2021/07/28 02:13:48;;;;;;;18.13;12.07;;;;;;;;;;5033087;28;20420;-80
2021/07/28 02:16:14;;;;;;;15.80;13.97;;;;;;;;;;5015565;28;20973;-80
2021/07/28 02:18:40;;;;;;;19.10;12.57;;;;;;;;;;5033222;28;20392;-81
2021/07/28 02:21:06;;;;;;;17.53;12.57;;;;;;;;;;5033106;28;20500;-80
2021/07/28 02:23:32;;;;;;;20.87;12.70;;;;;;;;;;5032872;28;20442;-80
2021/07/28 02:25:58;;;;;;;20.67;13.77;;;;;;;;;;5033205;28;20404;-80
2021/07/28 02:28:25;;;;;;;13.60;11.20;;;;;;;;;;5033141;28;20406;-80
2021/07/28 02:30:51;;;;;;;18.60;12.47;;;;;;;;;;5033227;28;20416;-80
2021/07/28 02:33:17;;;;;;;14.67;12.80;;;;;;;;;;5048244;28;20796;-80
2021/07/28 02:35:43;;;;;;;18.27;12.70;;;;;;;;;;5033072;28;20414;-81
2021/07/28 02:38:09;;;;;;;20.67;13.70;;;;;;;;;;5033008;28;20405;-80
2021/07/28 02:40:36;;;;;;;17.27;12.47;;;;;;;;;;5033045;28;20424;-80
2021/07/28 02:43:02;;;;;;;29.83;12.23;;;;;;;;;;5047867;28;20469;-81
2021/07/28 02:45:28;;;;;;;19.07;13.97;;;;;;;;;;5032888;28;20403;-80
2021/07/28 02:47:54;;;;;;;17.90;13.77;;;;;;;;;;5031863;28;20413;-81
2021/07/28 02:50:20;;;;;;;18.07;13.27;;;;;;;;;;5033008;28;20413;-80
2021/07/28 02:52:46;;;;;;;18.80;14.33;;;;;;;;;;5032665;28;20732;-81
2021/07/28 02:55:12;;;;;;;20.30;13.90;;;;;;;;;;5048394;28;20444;-81
2021/07/28 02:57:38;;;;;;;16.53;13.10;;;;;;;;;;5032995;28;20449;-80
2021/07/28 03:00:05;;;;;;;14.47;12.97;;;;;;;;;;5033076;28;20405;-81
2021/07/28 03:02:31;;;;;;;20.60;13.00;;;;;;;;;;5032870;28;21004;-81
2021/07/28 03:04:57;;;;;;;16.30;13.43;;;;;;;;;;5032470;28;20400;-80
2021/07/28 03:07:23;;;;;;;16.07;12.90;;;;;;;;;;5032623;28;20448;-81
2021/07/28 03:09:49;;;;;;;19.60;11.40;;;;;;;;;;5032776;28;20409;-81
2021/07/28 03:12:15;;;;;;;15.90;13.13;;;;;;;;;;5031615;28;20785;-81
2021/07/28 03:14:41;;;;;;;14.47;12.37;;;;;;;;;;5047715;28;20898;-80
2021/07/28 03:17:07;;;;;;;19.80;12.40;;;;;;;;;;5032632;28;20936;-80
2021/07/28 03:19:33;;;;;;;14.80;12.27;;;;;;;;;;5032535;28;20412;-81
2021/07/28 03:21:58;;;;;;;18.77;13.00;;;;;;;;;;5032626;28;20424;-81
2021/07/28 03:24:24;;;;;;;21.87;13.23;;;;;;;;;;5032277;28;20468;-81
2021/07/28 03:26:50;;;;;;;15.63;12.03;;;;;;;;;;5032680;28;20417;-81
2021/07/28 03:29:17;;;;;;;16.73;12.20;;;;;;;;;;5032493;28;20380;-80
2021/07/28 03:31:43;;;;;;;18.40;13.80;;;;;;;;;;5048293;28;20421;-81
2021/07/28 03:34:08;;;;;;;15.63;12.40;;;;;;;;;;5032219;28;20417;-81
2021/07/28 03:36:34;;;;;;;15.00;12.63;;;;;;;;;;5032631;28;20424;-81
2021/07/28 03:39:00;;;;;;;18.20;11.23;;;;;;;;;;5032574;28;20474;-81
2021/07/28 03:41:27;;;;;;;14.40;12.13;;;;;;;;;;5032480;28;20440;-81
2021/07/28 03:43:52;;;;;;;15.50;13.30;;;;;;;;;;5030762;28;20465;-81
2021/07/28 03:46:18;;;;;;;17.10;13.43;;;;;;;;;;5032654;28;20429;-80
2021/07/28 03:48:44;;;;;;;15.97;12.37;;;;;;;;;;5032687;28;20777;-80
2021/07/28 03:51:10;;;;;;;21.00;13.17;;;;;;;;;;5035474;28;20474;-81
2021/07/28 03:53:36;;;;;;;17.53;13.47;;;;;;;;;;5035512;28;20806;-81
2021/07/28 03:56:03;;;;;;;14.27;11.67;;;;;;;;;;5051133;28;20416;-80
2021/07/28 03:58:28;;;;;;;16.63;14.10;;;;;;;;;;5035978;28;20398;-80
2021/07/28 04:00:54;;;;;;;17.37;12.67;;;;;;;;;;5035849;28;20392;-81
2021/07/28 04:03:20;;;;;;;15.27;13.17;;;;;;;;;;5034177;28;20464;-81
2021/07/28 04:05:46;;;;;;;14.53;12.97;;;;;;;;;;5050751;28;20479;-81
2021/07/28 04:08:12;;;;;;;15.23;12.40;;;;;;;;;;5035593;28;20779;-81
2021/07/28 04:10:38;;;;;;;13.33;12.03;;;;;;;;;;5035874;28;20413;-81
2021/07/28 04:13:04;;;;;;;16.53;13.17;;;;;;;;;;5035487;28;20425;-81
2021/07/28 04:15:30;;;;;;;21.67;13.10;;;;;;;;;;5035573;28;20442;-81
2021/07/28 04:17:56;;;;;;;13.20;11.40;;;;;;;;;;5035456;28;20399;-81
2021/07/28 04:20:22;;;;;;;19.73;13.13;;;;;;;;;;5050782;28;20403;-81
2021/07/28 04:22:48;;;;;;;14.30;12.40;;;;;;;;;;5035277;28;20463;-81
2021/07/28 04:25:14;;;;;;;14.40;12.17;;;;;;;;;;5035278;28;20433;-81
2021/07/28 04:27:40;;;;;;;15.17;12.13;;;;;;;;;;5035291;28;20416;-81
2021/07/28 04:30:07;;;;;;;18.87;13.50;;;;;;;;;;5035288;28;20391;-80
2021/07/28 04:32:33;;;;;;;18.57;12.90;;;;;;;;;;5035174;28;20411;-80
2021/07/28 04:35:00;;;;;;;18.37;14.00;;;;;;;;;;5050527;28;20432;-80
2021/07/28 04:37:26;;;;;;;19.93;12.23;;;;;;;;;;5035531;28;20824;-80
2021/07/28 04:39:52;;;;;;;15.10;12.50;;;;;;;;;;5017751;28;20417;-80
2021/07/28 04:42:18;;;;;;;21.50;12.57;;;;;;;;;;5034991;28;20435;-80
2021/07/28 04:44:44;;;;;;;17.57;12.77;;;;;;;;;;5034688;28;20431;-80
2021/07/28 04:47:09;;;;;;;14.90;11.90;;;;;;;;;;5035248;28;20756;-80
2021/07/28 04:49:35;;;;;;;17.20;12.93;;;;;;;;;;5050428;28;20409;-80
2021/07/28 04:52:01;;;;;;;14.70;12.73;;;;;;;;;;5034960;28;20482;-81
2021/07/28 04:54:27;;;;;;;17.33;12.90;;;;;;;;;;5034526;28;20436;-80
2021/07/28 04:56:53;;;;;;;20.20;12.20;;;;;;;;;;5034847;28;20441;-80
2021/07/28 04:59:19;;;;;;;17.53;12.70;;;;;;;;;;5034833;28;20395;-80
2021/07/28 05:01:45;;;;;;;16.13;11.10;;;;;;;;;;5050065;28;20388;-80
2021/07/28 05:04:12;;;;;;;16.77;11.60;;;;;;;;;;5034573;28;20490;-80
2021/07/28 05:06:40;;;;;;;13.87;11.97;;;;;;;;;;5034838;28;20468;-80
2021/07/28 05:09:06;;;;;;;14.67;11.33;;;;;;;;;;5034631;28;20392;-81
2021/07/28 05:11:32;;;;;;;14.37;10.07;;;;;;;;;;5034650;28;20851;-80
2021/07/28 05:13:58;;;;;;;12.30;10.57;;;;;;;;;;5034277;28;20417;-80
2021/07/28 05:16:24;;;;;;;13.20;11.80;;;;;;;;;;5034412;28;20765;-80
2021/07/28 05:18:50;;;;;;;12.87;9.90;;;;;;;;;;5034469;28;20409;-80
2021/07/28 05:21:16;;;;;;;17.10;10.80;;;;;;;;;;5033155;28;20413;-81
2021/07/28 05:23:44;;;;;;;12.40;9.47;;;;;;;;;;5034148;28;20563;-80
2021/07/28 05:26:10;;;;;;;12.63;9.57;;;;;;;;;;5034158;28;20965;-80
2021/07/28 05:28:36;;;;;;;11.23;9.73;;;;;;;;;;5034171;28;20379;-80
2021/07/28 05:31:02;;;;;;;14.60;10.20;;;;;;;;;;5034235;28;20427;-80
2021/07/28 05:33:28;;;;;;;10.90;9.50;;;;;;;;;;5032651;28;20416;-80
2021/07/28 05:35:54;;;;;;;17.17;10.83;;;;;;;;;;5034240;28;20444;-81
2021/07/28 05:38:20;;;;;;;13.40;9.53;;;;;;;;;;5034128;28;20384;-80
2021/07/28 05:40:46;;;;;;;12.73;9.70;;;;;;;;;;5049421;28;20399;-81
2021/07/28 05:43:12;;;;;;;9.77;8.33;;;;;;;;;;5033633;28;20901;-81
2021/07/28 05:45:38;;;;;;;9.00;8.10;;;;;;;;;;5033846;28;20527;-80
2021/07/28 05:48:04;;;;;;;15.57;8.80;;;;;;;;;;5034000;28;20471;-80
2021/07/28 05:50:30;;;;;;;11.93;8.20;;;;;;;;;;5034140;28;20388;-80
2021/07/28 05:52:56;;;;;;;11.97;8.27;;;;;;;;;;5033721;28;20399;-80
2021/07/28 05:55:22;;;;;;;10.03;7.97;;;;;;;;;;5033884;28;20896;-79
2021/07/28 05:57:51;;;;;;;8.23;7.30;;;;;;;;;;5033717;28;20390;-79
2021/07/28 06:00:17;;;;;;;8.73;7.90;;;;;;;;;;5033812;28;20809;-80
2021/07/28 06:02:43;;;;;;;13.10;8.37;;;;;;;;;;5033486;28;20507;-80
2021/07/28 06:05:09;;;;;;;8.70;7.50;;;;;;;;;;5033489;28;20449;-80
2021/07/28 06:07:35;;;;;;;14.33;7.73;;;;;;;;;;5033732;28;20770;-80
2021/07/28 06:10:01;;;;;;;14.67;8.30;;;;;;;;;;5033517;28;20394;-79
2021/07/28 06:12:27;;;;;;;8.40;7.17;;;;;;;;;;5031966;28;20416;-80
2021/07/28 06:14:53;;;;;;;8.60;7.37;;;;;;;;;;5032988;28;20403;-79
2021/07/28 06:17:19;;;;;;;10.37;7.57;;;;;;;;;;5033349;28;20394;-80
2021/07/28 06:19:45;;;;;;;12.00;7.67;;;;;;;;;;5033392;28;20985;-79
2021/07/28 06:22:11;;;;;;;8.30;7.43;;;;;;;;;;5048566;28;20497;-79
2021/07/28 06:24:37;;;;;;;7.30;6.60;;;;;;;;;;5032863;28;20436;-79
2021/07/28 06:27:04;;;;;;;9.00;6.10;;;;;;;;;;5033217;28;20825;-78
2021/07/28 06:29:30;;;;;;;7.40;6.70;;;;;;;;;;5048594;28;20799;-79
2021/07/28 06:31:56;;;;;;;7.37;6.57;;;;;;;;;;5033258;28;20494;-79
2021/07/28 06:34:22;;;;;;;8.80;6.40;;;;;;;;;;5032796;28;20516;-79
2021/07/28 06:36:48;;;;;;;9.33;5.93;;;;;;;;;;5048484;28;20394;-79
2021/07/28 06:39:14;;;;;;;7.10;6.40;;;;;;;;;;5033251;28;20403;-79
2021/07/28 06:41:40;;;;;;;9.30;6.40;;;;;;;;;;5033227;28;20467;-79
2021/07/28 06:44:06;;;;;;;7.67;6.13;;;;;;;;;;5032741;28;20474;-79
2021/07/28 06:46:32;;;;;;;6.73;6.13;;;;;;;;;;5033312;28;20912;-79
2021/07/28 06:48:58;;;;;;;8.43;6.27;;;;;;;;;;5033106;28;20405;-79
2021/07/28 06:51:24;;;;;;;10.10;6.10;;;;;;;;;;5033122;28;20391;-79
2021/07/28 06:53:50;;;;;;;6.80;5.60;;;;;;;;;;5032739;28;20430;-79
2021/07/28 06:56:16;;;;;;;7.00;5.87;;;;;;;;;;5048095;28;20419;-79
2021/07/28 06:58:42;;;;;;;8.93;5.83;;;;;;;;;;5032995;28;20432;-79
2021/07/28 07:01:09;;;;;;;6.93;5.67;;;;;;;;;;5032762;28;20833;-79
2021/07/28 07:03:35;;;;;;;5.83;5.30;;;;;;;;;;5031508;28;20806;-79
2021/07/28 07:06:02;;;;;;;6.97;5.60;;;;;;;;;;5032666;28;20483;-78
2021/07/28 07:08:28;;;;;;;6.33;5.73;;;;;;;;;;5032693;28;20383;-79
2021/07/28 07:10:54;;;;;;;7.70;5.80;;;;;;;;;;5032942;28;20386;-79
2021/07/28 07:13:20;;;;;;;7.60;6.80;;;;;;;;;;5032479;28;20388;-78
2021/07/28 07:15:46;;;;;;;7.30;6.60;;;;;;;;;;5032809;28;20446;-79
2021/07/28 07:18:12;;;;;;;7.20;5.47;;;;;;;;;;5032739;28;20415;-79
2021/07/28 07:20:38;;;;;;;5.77;5.23;;;;;;;;;;5032909;28;20391;-79
2021/07/28 07:23:04;;;;;;;9.40;6.10;;;;;;;;;;5032395;28;20809;-78
2021/07/28 07:25:30;;;;;;;6.30;5.70;;;;;;;;;;5034600;28;20424;-79
2021/07/28 07:27:56;;;;;;;9.10;5.80;;;;;;;;;;5036665;28;20837;-79
2021/07/28 07:30:22;;;;;;;7.07;5.57;;;;;;;;;;5036517;28;20436;-79
2021/07/28 07:33:37;;;;;;;6.83;6.20;;;;;;;;;;5036143;28;20879;-79
2021/07/28 07:35:34;;;;;;;10.33;6.40;;;;;;;;;;5036215;28;20515;-79
2021/07/28 07:38:00;;;;;;;6.80;5.30;;;;;;;;;;5035491;28;20405;-79
2021/07/28 07:40:26;;;;;;;5.47;4.90;;;;;;;;;;5036514;28;20409;-78
2021/07/28 07:42:52;;;;;;;5.97;5.40;;;;;;;;;;5036113;28;21379;-78
2021/07/28 07:45:18;;;;;;;7.40;5.90;;;;;;;;;;5036132;28;20432;-79
2021/07/28 07:47:44;;;;;;;6.03;5.43;;;;;;;;;;5036287;28;20437;-78
2021/07/28 07:50:10;;;;;;;9.00;6.30;;;;;;;;;;5036222;28;20459;-79
2021/07/28 07:52:36;;;;;;;8.83;6.43;;;;;;;;;;5036261;28;20837;-81
2021/07/28 07:55:03;;;;;;;8.53;5.90;;;;;;;;;;5051405;28;20415;-83
2021/07/28 07:57:33;;;;;;;10.83;4.67;;;;;;;;;;5051504;28;20912;-84
2021/07/28 07:59:59;;;;;;;5.10;3.73;;;;;;;;;;5035114;28;20782;-85
2021/07/28 08:02:25;;;;;;;7.47;5.13;;;;;;;;;;5018311;28;20472;-80
2021/07/28 08:04:51;;;;;;;6.90;4.17;;;;;;;;;;5035436;28;20455;-80
2021/07/28 08:07:17;;;;;;;4.83;4.30;;;;;;;;;;5035717;28;20447;-81
2021/07/28 08:09:43;;;;;;;4.53;2.93;;;;;;;;;;5035726;28;20384;-80
2021/07/28 08:12:09;;;;;;;4.00;3.20;;;;;;;;;;5035805;28;20412;-80
2021/07/28 08:14:35;;;;;;;3.93;3.40;;;;;;;;;;5035354;28;20925;-80
2021/07/28 08:17:03;;;;;;;3.43;2.83;;;;;;;;;;5035772;28;20496;-80
2021/07/28 08:19:29;;;;;;;5.13;3.30;;;;;;;;;;5050830;28;20383;-80
2021/07/28 08:21:56;;;;;;;4.27;2.80;;;;;;;;;;5035291;28;20413;-83
2021/07/28 08:24:21;;;;;;;7.50;3.10;;;;;;;;;;5035163;28;20792;-82
2021/07/28 08:26:47;;;;;;;3.53;2.80;;;;;;;;;;5035514;28;20375;-83
2021/07/28 08:29:14;;;;;;;3.47;3.07;;;;;;;;;;5035443;28;20379;-83
2021/07/28 08:31:40;;;;;;;3.90;2.70;;;;;;;;;;5035229;28;20439;-79
2021/07/28 08:34:06;;;;;;;3.50;2.90;;;;;;;;;;5034807;28;20413;-82
2021/07/28 08:36:32;;;;;;;3.87;2.70;;;;;;;;;;5050158;28;20452;-80
2021/07/28 08:38:58;;;;;;;10.23;2.80;;;;;;;;;;5035177;28;20420;-80
2021/07/28 08:41:26;;;;;;;5.00;3.23;;;;;;;;;;5035167;28;20467;-78
2021/07/28 08:43:56;;;;;;;5.80;3.37;;;;;;;;;;5050008;28;20464;-79
2021/07/28 08:46:24;;;;;;;5.50;3.60;;;;;;;;;;5035295;28;20490;-80
2021/07/28 08:48:50;;;;;;;3.97;3.57;;;;;;;;;;5035262;28;20400;-82
2021/07/28 08:51:17;;;;;;;4.27;3.47;;;;;;;;;;5035204;28;20375;-79
2021/07/28 08:53:43;;;;;;;8.40;4.17;;;;;;;;;;5034656;28;20452;-81
2021/07/28 08:56:09;;;;;;;3.53;3.20;;;;;;;;;;5050294;28;20507;-80
2021/07/28 08:58:35;;;;;;;5.20;3.50;;;;;;;;;;5034987;28;20792;-80
2021/07/28 09:01:01;;;;;;;3.83;3.20;;;;;;;;;;5033777;28;20391;-81
2021/07/28 09:03:27;;;;;;;4.40;3.73;;;;;;;;;;5034419;28;20465;-80
2021/07/28 09:05:57;;;;;;;9.43;3.30;;;;;;;;;;5034552;28;20426;-80
2021/07/28 09:08:28;;;;;;;3.27;2.80;;;;;;;;;;5034703;28;20417;-80
2021/07/28 09:10:57;;;;;;;2.90;2.60;;;;;;;;;;5034862;28;20384;-80
2021/07/28 09:13:30;;;;;;;4.17;2.80;;;;;;;;;;5034314;28;20905;-81
2021/07/28 09:15:58;;;;;;;2.73;2.53;;;;;;;;;;5050004;28;20437;-79
2021/07/28 09:18:32;;;;;;;4.03;2.57;;;;;;;;;;5034696;28;20437;-79
2021/07/28 09:20:58;;;;;;;4.60;2.60;;;;;;;;;;5034673;28;20415;-82
2021/07/28 09:23:41;;;;;;;4.57;2.53;;;;;;;;;;5034051;28;20461;-80
2021/07/28 09:26:26;;;;;;;8.03;2.50;;;;;;;;;;5049714;28;20843;-83
2021/07/28 09:29:02;;;;;;;3.60;2.83;;;;;;;;;;5034356;28;20409;-79
2021/07/28 09:31:33;;;;;;;3.30;2.50;;;;;;;;;;5049859;28;20436;-80
2021/07/28 09:34:30;;;;;;;4.90;3.00;;;;;;;;;;5033919;28;20413;-81
2021/07/28 09:37:07;;;;;;;4.00;3.03;;;;;;;;;;5049379;28;20421;-79
2021/07/28 09:39:33;;;;;;;3.23;2.53;;;;;;;;;;5049237;28;20395;-80
2021/07/28 09:42:12;;;;;;;4.10;3.03;;;;;;;;;;5049530;28;20499;-82
2021/07/28 09:44:40;;;;;;;6.10;2.40;;;;;;;;;;5033479;28;20424;-80
2021/07/28 09:47:11;;;;;;;2.67;2.30;;;;;;;;;;5033442;28;20415;-81
2021/07/28 09:49:38;;;;;;;3.93;2.93;;;;;;;;;;5049445;28;20397;-82
2021/07/28 09:52:25;;;;;;;3.17;2.50;;;;;;;;;;5034130;28;20404;-81
2021/07/28 09:54:52;;;;;;;2.70;2.50;;;;;;;;;;5033730;28;20421;-81
2021/07/28 09:57:23;;;;;;;2.30;2.10;;;;;;;;;;5033951;28;20401;-81
2021/07/28 09:59:51;;;;;;;2.73;2.53;;;;;;;;;;5034297;28;20827;-82
2021/07/28 10:02:17;;;;;;;4.70;2.60;;;;;;;;;;5033740;28;20464;-78
2021/07/28 10:04:48;;;;;;;4.27;2.57;;;;;;;;;;5033540;28;20471;-79
2021/07/28 10:07:16;;;;;;;3.10;2.63;;;;;;;;;;5033788;28;20792;-79
2021/07/28 10:09:43;;;;;;;6.23;2.30;;;;;;;;;;5033603;28;20405;-80
2021/07/28 10:12:10;;;;;;;3.40;3.10;;;;;;;;;;5033497;28;21010;-77
2021/07/28 10:14:37;;;;;;;4.30;2.37;;;;;;;;;;5033188;28;20428;-80
2021/07/28 10:17:04;;;;;;;2.97;2.33;;;;;;;;;;5033610;28;20476;-79
2021/07/28 10:19:32;;;;;;;3.40;2.60;;;;;;;;;;5033612;28;20405;-80
2021/07/28 10:22:01;;;;;;;4.80;2.40;;;;;;;;;;5033435;28;20820;-81
2021/07/28 10:24:27;;;;;;;3.87;2.47;;;;;;;;;;5033094;28;20461;-79
2021/07/28 10:26:54;;;;;;;3.00;2.30;;;;;;;;;;5033356;28;20434;-80
2021/07/28 10:29:21;;;;;;;1.87;1.77;;;;;;;;;;5033415;28;20789;-78
2021/07/28 10:31:48;;;;;;;2.77;2.53;;;;;;;;;;5033385;28;20770;-81
2021/07/28 10:34:24;;;;;;;2.17;1.97;;;;;;;;;;5032937;28;20790;-82
2021/07/28 10:36:52;;;;;;;3.07;2.13;;;;;;;;;;5048510;28;20503;-78
2021/07/28 10:39:37;;;;;;;2.70;2.17;;;;;;;;;;5033255;28;20404;-80
2021/07/28 10:42:06;;;;;;;2.43;2.23;;;;;;;;;;5033131;28;20429;-81
2021/07/28 10:44:52;;;;;;;2.67;2.47;;;;;;;;;;5031783;28;20433;-79
2021/07/28 10:47:19;;;;;;;5.57;1.97;;;;;;;;;;5033102;28;20423;-81
2021/07/28 10:49:47;;;;;;;5.27;2.37;;;;;;;;;;5033379;28;20401;-78
2021/07/28 10:52:33;;;;;;;3.57;2.07;;;;;;;;;;5033419;28;20748;-82
2021/07/28 10:54:59;;;;;;;2.97;2.30;;;;;;;;;;5032843;28;20448;-80
2021/07/28 10:57:34;;;;;;;4.40;2.10;;;;;;;;;;5033274;28;20432;-80
2021/07/28 11:00:01;;;;;;;2.80;2.33;;;;;;;;;;5051563;28;20413;-80
2021/07/28 11:02:45;;;;;;;3.97;2.20;;;;;;;;;;5052414;28;20471;-79
2021/07/28 11:05:21;;;;;;;2.37;2.00;;;;;;;;;;5036918;28;20403;-79
2021/07/28 11:08:00;;;;;;;3.23;2.50;;;;;;;;;;5037168;28;20448;-79
2021/07/28 11:10:26;;;;;;;2.43;1.90;;;;;;;;;;5037082;28;20409;-79
2021/07/28 11:12:52;;;;;;;2.20;2.00;;;;;;;;;;5036677;28;20762;-79
2021/07/28 11:15:19;;;;;;;3.87;2.53;;;;;;;;;;5036925;28;20869;-82
2021/07/28 11:17:44;;;;;;;2.97;1.77;;;;;;;;;;5036926;28;20447;-81
2021/07/28 11:20:11;;;;;;;3.20;2.07;;;;;;;;;;5052158;28;20421;-82
2021/07/28 11:22:37;;;;;;;1.70;1.60;;;;;;;;;;5052004;28;20464;-78
2021/07/28 11:25:03;;;;;;;4.03;2.03;;;;;;;;;;5036330;28;20431;-78
2021/07/28 11:27:29;;;;;;;3.13;1.40;;;;;;;;;;5036686;28;20412;-80
2021/07/28 11:30:11;;;;;;;2.23;1.80;;;;;;;;;;5036714;28;20769;-80
2021/07/28 11:32:39;;;;;;;2.60;2.10;;;;;;;;;;5036661;28;20900;-80
2021/07/28 11:35:06;;;;;;;2.10;1.70;;;;;;;;;;5034986;28;20804;-79
2021/07/28 11:37:32;;;;;;;2.47;1.50;;;;;;;;;;5036596;28;20412;-80
2021/07/28 11:39:59;;;;;;;2.80;1.93;;;;;;;;;;5036620;28;20503;-78
2021/07/28 11:42:28;;;;;;;2.50;2.17;;;;;;;;;;5035277;28;20464;-79
2021/07/28 11:44:54;;;;;;;2.60;1.70;;;;;;;;;;5055555;28;20485;-77
2021/07/28 11:47:27;;;;;;;1.97;1.73;;;;;;;;;;5055999;28;20748;-80
2021/07/28 11:50:06;;;;;;;2.47;1.73;;;;;;;;;;5054819;28;20739;-79
2021/07/28 11:52:32;;;;;;;1.83;1.73;;;;;;;;;;5054777;28;20446;-80
2021/07/28 11:54:58;;;;;;;6.53;2.53;;;;;;;;;;5055591;28;20432;-80
2021/07/28 11:57:24;;;;;;;2.00;1.80;;;;;;;;;;5055662;28;20772;-81
2021/07/28 11:59:50;;;;;;;2.43;2.20;;;;;;;;;;5055945;28;20433;-80
2021/07/28 12:02:20;;;;;;;4.07;2.00;;;;;;;;;;5055865;28;20420;-80
2021/07/28 12:04:47;;;;;;;2.03;1.83;;;;;;;;;;5055533;28;20764;-79
2021/07/28 12:07:14;;;;;;;3.30;2.00;;;;;;;;;;5055952;28;20473;-81
2021/07/28 12:09:41;;;;;;;2.63;2.10;;;;;;;;;;5055287;28;20897;-80
2021/07/28 12:12:16;;;;;;;2.50;1.83;;;;;;;;;;5078667;28;20450;-81
2021/07/28 12:14:43;;;;;;;3.13;2.10;;;;;;;;;;5053207;28;20447;-81
2021/07/28 12:17:20;;;;;;;3.13;1.80;;;;;;;;;;5055139;28;20408;-81
2021/07/28 12:19:52;;;;;;;2.37;2.17;;;;;;;;;;5055258;28;20478;-79
2021/07/28 12:22:26;;;;;;;2.40;1.90;;;;;;;;;;5054181;28;20502;-79
2021/07/28 12:24:52;;;;;;;2.60;2.13;;;;;;;;;;5055187;28;20427;-79
2021/07/28 12:27:24;;;;;;;4.07;2.90;;;;;;;;;;5055409;28;20405;-82
2021/07/28 12:30:16;;;;;;;5.53;1.80;;;;;;;;;;5055493;28;20404;-79
2021/07/28 12:32:43;;;;;;;3.13;2.10;;;;;;;;;;5055512;28;20374;-78
2021/07/28 12:35:15;;;;;;;3.77;2.30;;;;;;;;;;5055483;28;20398;-84
2021/07/28 12:37:42;;;;;;;3.03;1.90;;;;;;;;;;5055667;28;20441;-82
2021/07/28 12:40:08;;;;;;;6.47;2.07;;;;;;;;;;5053940;28;20408;-83
2021/07/28 12:42:34;;;;;;;1.90;1.70;;;;;;;;;;5055500;28;20430;-81
2021/07/28 12:45:01;;;;;;;2.20;1.57;;;;;;;;;;5053814;28;20436;-82
2021/07/28 12:47:27;;;;;;;1.50;1.40;;;;;;;;;;5055881;28;20491;-79
2021/07/28 12:49:53;;;;;;;2.07;1.93;;;;;;;;;;5054275;28;20423;-83
2021/07/28 12:52:19;;;;;;;1.67;1.57;;;;;;;;;;5055712;28;20407;-79
2021/07/28 12:54:45;;;;;;;2.43;1.80;;;;;;;;;;5055618;28;20426;-81
2021/07/28 12:57:11;;;;;;;1.90;1.57;;;;;;;;;;5056322;28;20404;-82
2021/07/28 12:59:37;;;;;;;3.20;2.10;;;;;;;;;;5052977;28;20485;-81
2021/07/28 13:02:03;;;;;;;3.27;1.60;;;;;;;;;;5055289;28;20428;-82
2021/07/28 13:04:30;;;;;;;2.97;1.87;;;;;;;;;;5054876;28;20443;-82
2021/07/28 13:07:07;;;;;;;3.10;1.90;;;;;;;;;;5053340;28;20471;-83
2021/07/28 13:09:33;;;;;;;2.30;1.73;;;;;;;;;;5052281;28;20943;-82
2021/07/28 13:11:59;;;;;;;6.63;2.30;;;;;;;;;;5051850;28;20432;-83
2021/07/28 13:14:25;;;;;;;3.20;1.97;;;;;;;;;;5052088;28;20451;-83
2021/07/28 13:16:51;;;;;;;1.93;1.70;;;;;;;;;;5053227;28;20796;-82
2021/07/28 13:19:17;;;;;;;2.60;2.40;;;;;;;;;;5052584;28;20514;-82
2021/07/28 13:21:43;;;;;;;3.43;2.00;;;;;;;;;;5052311;28;20428;-80
2021/07/28 13:24:09;;;;;;;2.30;2.07;;;;;;;;;;5052073;28;20468;-81
2021/07/28 13:26:35;;;;;;;2.03;1.70;;;;;;;;;;5085344;28;20511;-80
2021/07/28 13:29:01;;;;;;;2.20;2.00;;;;;;;;;;5051871;28;20470;-81
2021/07/28 13:31:27;;;;;;;3.43;1.60;;;;;;;;;;5052719;28;20416;-80
2021/07/28 13:33:53;;;;;;;5.70;1.80;;;;;;;;;;5051977;28;20428;-81
2021/07/28 13:36:19;;;;;;;2.07;1.87;;;;;;;;;;5051938;28;20439;-81
2021/07/28 13:38:45;;;;;;;1.67;1.53;;;;;;;;;;5052584;28;20474;-81
2021/07/28 13:41:11;;;;;;;2.53;2.17;;;;;;;;;;5051171;28;20440;-82
2021/07/28 13:43:37;;;;;;;3.93;2.00;;;;;;;;;;5051126;28;20474;-81
2021/07/28 13:46:05;;;;;;;5.53;1.97;;;;;;;;;;5052367;28;20842;-81
2021/07/28 13:48:32;;;;;;;4.30;2.00;;;;;;;;;;5083913;28;20789;-81
2021/07/28 13:51:02;;;;;;;5.73;1.90;;;;;;;;;;5051526;28;20423;-80
2021/07/28 13:53:29;;;;;;;3.23;1.83;;;;;;;;;;5051789;28;20458;-80
2021/07/28 13:55:55;;;;;;;5.37;1.80;;;;;;;;;;5052387;28;21017;-80
2021/07/28 13:58:21;;;;;;;1.77;1.67;;;;;;;;;;5070354;28;20432;-81
2021/07/28 14:00:47;;;;;;;3.20;1.80;;;;;;;;;;5032332;28;20445;-81
2021/07/28 14:03:13;;;;;;;2.03;1.53;;;;;;;;;;5031413;28;20812;-82
2021/07/28 14:05:39;;;;;;;2.23;1.63;;;;;;;;;;5031274;28;20449;-80
2021/07/28 14:08:05;;;;;;;3.63;1.67;;;;;;;;;;5030625;28;20559;-80
2021/07/28 14:10:31;;;;;;;6.00;2.10;;;;;;;;;;5032031;28;20944;-82
2021/07/28 14:12:57;;;;;;;4.30;1.93;;;;;;;;;;5031133;28;20429;-81
2021/07/28 14:15:23;;;;;;;4.40;1.43;;;;;;;;;;5030594;28;20543;-82
2021/07/28 14:17:49;;;;;;;3.07;2.00;;;;;;;;;;5031652;28;20474;-81
2021/07/28 14:20:15;;;;;;;6.07;2.00;;;;;;;;;;5030589;28;20864;-82
2021/07/28 14:22:41;;;;;;;3.17;1.70;;;;;;;;;;5030684;28;20468;-83
2021/07/28 14:25:08;;;;;;;4.70;1.60;;;;;;;;;;5031977;28;20441;-80
2021/07/28 14:27:34;;;;;;;1.60;1.40;;;;;;;;;;5030471;28;20425;-79
2021/07/28 14:30:00;;;;;;;3.03;2.07;;;;;;;;;;5031228;28;20790;-82
2021/07/28 14:32:26;;;;;;;2.27;1.70;;;;;;;;;;5031743;28;20503;-81
2021/07/28 14:34:52;;;;;;;2.10;1.70;;;;;;;;;;5029717;28;20437;-80
2021/07/28 14:37:19;;;;;;;2.90;1.47;;;;;;;;;;5031243;28;20467;-81